Here is the Quick Look data you requested

The Data originates at the National Weather Service, and is made available here by the UAlbany Department of Atmospheric and Environmental Sciences

Surface Observations

KCVG 220152Z 34008KT 10SM BKN065 OVC110 09/02 A3016 RMK AO2 SLP213 T00890022=
KCVG 220152Z 34008KT 10SM BKN065 OVC110 09/02 A3016=
KCVG 220252Z 33010KT 10SM BKN050 OVC100 09/02 A3017 RMK AO2 SLP216 T00890017
 51016=
KCVG 220252Z 33010KT 10SM BKN050 OVC100 09/02 A3017=
KCVG 220352Z 36014G23KT 10SM CLR 07/M03 A3019 RMK AO2 SLP223 T00671033=
KCVG 220352Z 36014G23KT 10SM CLR 07/M03 A3019=
KCVG 220452Z 35013KT 10SM CLR 05/M04 A3022 RMK AO2 PK WND 33027/0359 SLP234
 T00501039 401610050=
KCVG 220452Z 35013KT 10SM CLR 05/M04 A3022=
KCVG 220552Z 36016KT 10SM CLR 03/M04 A3025 RMK AO2 SLP243 T00331044 10122 20033
 53025=
KCVG 220552Z 36016KT 10SM CLR 03/M04 A3025=
KCVG 220652Z 01015KT 10SM CLR 03/M04 A3029 RMK AO2 SLP256 T00281039=
KCVG 220652Z 01015KT 10SM CLR 03/M04 A3029=
KCVG 220752Z 01010KT 10SM CLR 02/M04 A3031 RMK AO2 SLP263 T00171039=
KCVG 220752Z 01010KT 10SM CLR 02/M04 A3031=
KCVG 220852Z 04016G21KT 10SM CLR 01/M07 A3032 RMK AO2 SLP266 T00111067 51022=
KCVG 220852Z 04016G21KT 10SM CLR 01/M07 A3032=
KCVG 220952Z 03014G21KT 10SM CLR 00/M07 A3033 RMK AO2 SLP271 T00001072=
KCVG 220952Z 03014G21KT 10SM CLR 00/M07 A3033=
KCVG 221052Z 02013KT 10SM CLR M01/M09 A3035 RMK AO2 SLP280 T10111089=
KCVG 221052Z 02013KT 10SM CLR M01/M09 A3035=
KCVG 221152Z 02013KT 10SM FEW035 M02/M09 A3039 RMK AO2 SLP292 T10171089 10033
 21017 53023=
KCVG 221152Z 02013KT 10SM FEW035 M02/M09 A3039=
KCVG 221252Z 04015KT 10SM FEW037 M01/M09 A3042 RMK AO2 SLP303 T10111089=
KCVG 221252Z 04015KT 10SM FEW037 M01/M09 A3042=
KCVG 221352Z 04014KT 10SM FEW040 M01/M09 A3045 RMK AO2 SLP313 T10061089=
KCVG 221352Z 04014KT 10SM FEW040 M01/M09 A3045=
KCVG 221452Z 06010KT 10SM CLR 01/M08 A3047 RMK AO2 SLP320 T00061083 51026=
KCVG 221452Z 06010KT 10SM CLR 01/M08 A3047=
KCVG 221552Z 03012G17KT 10SM CLR 02/M08 A3049 RMK AO2 SLP327 T00171083=
KCVG 221552Z 03012G17KT 10SM CLR 02/M08 A3049=
KCVG 221652Z 05014KT 10SM CLR 03/M09 A3049 RMK AO2 SLP329 T00281089=
KCVG 221652Z 05014KT 10SM CLR 03/M09 A3049=
KCVG 221752Z 02013G19KT 10SM CLR 04/M09 A3048 RMK AO2 SLP325 T00391089 10039
 21017 50005=
KCVG 221752Z 02013G19KT 10SM CLR 04/M09 A3048=
KCVG 221852Z 06014KT 10SM CLR 04/M09 A3046 RMK AO2 SLP319 T00441089=
KCVG 221852Z 06014KT 10SM CLR 04/M09 A3046=
KCVG 221952Z 04010G18KT 10SM CLR 05/M08 A3044 RMK AO2 SLP311 T00501078=
KCVG 221952Z 04010G18KT 10SM CLR 05/M08 A3044=
KCVG 222052Z 07009G21KT 10SM CLR 06/M08 A3043 RMK AO2 SLP308 T00561083 56017=
KCVG 222052Z 07009G21KT 10SM CLR 06/M08 A3043=
KCVG 222152Z 05012KT 10SM CLR 06/M09 A3043 RMK AO2 SLP309 T00561089=
KCVG 222152Z 05012KT 10SM CLR 06/M09 A3043=
KCVG 222252Z 04010KT 10SM FEW300 04/M09 A3043 RMK AO2 SLP311 T00441089=
KCVG 222252Z 04010KT 10SM FEW300 04/M09 A3043=
KCVG 222352Z 07011KT 10SM FEW300 03/M08 A3044 RMK AO2 SLP313 T00331078 10061
 20033 53003=
KCVG 222352Z 07011KT 10SM FEW300 03/M08 A3044=
KCVG 230052Z 07012KT 10SM FEW300 02/M07 A3045 RMK AO2 SLP317 T00221067=
KCVG 230052Z 07012KT 10SM FEW300 02/M07 A3045=
KCVG 230152Z 06011KT 10SM SCT250 02/M07 A3046 RMK AO2 SLP319 T00221067=
KCVG 230152Z 06011KT 10SM SCT250 02/M07 A3046=